createdAt,value
2018-04-24T04:09:04.569Z,10.69
2018-04-24T04:09:30.035Z,10.64
2018-04-24T04:09:55.534Z,10.74
2018-04-24T04:10:20.936Z,10.64
2018-04-24T04:10:46.435Z,10.72
2018-04-24T04:11:11.927Z,10.68
2018-04-24T04:11:37.354Z,10.72
2018-04-24T04:12:02.823Z,10.69
2018-04-24T04:12:28.307Z,10.69
2018-04-24T04:12:53.803Z,10.75
2018-04-24T04:13:19.220Z,10.72
2018-04-24T04:13:44.738Z,10.78
2018-04-24T04:14:10.215Z,10.79
2018-04-24T04:14:35.624Z,10.75
2018-04-24T04:15:01.100Z,10.74
2018-04-24T04:15:26.542Z,10.75
2018-04-24T04:15:52.041Z,10.86
2018-04-24T04:16:17.692Z,10.82
2018-04-24T04:16:43.135Z,10.82
2018-04-24T04:17:08.640Z,10.84
2018-04-24T04:17:34.077Z,10.84
2018-04-24T04:17:59.579Z,10.84
2018-04-24T04:18:25.043Z,10.81
2018-04-24T04:18:50.477Z,10.9
2018-04-24T04:19:15.959Z,10.9
2018-04-24T04:19:41.413Z,10.97
2018-04-24T04:20:06.903Z,10.87
2018-04-24T04:20:32.364Z,10.9
2018-04-24T04:20:57.856Z,10.97
2018-04-24T04:21:23.298Z,10.93
2018-04-24T04:21:48.793Z,10.9
2018-04-24T04:22:14.258Z,10.9
2018-04-24T04:22:39.647Z,10.94
2018-04-24T04:23:05.126Z,10.9
2018-04-24T04:23:30.640Z,10.96
2018-04-24T04:23:56.076Z,11.05
2018-04-24T04:24:21.557Z,10.96
2018-04-24T04:24:47.045Z,11.07
2018-04-24T04:25:12.583Z,10.99
2018-04-24T04:25:38.052Z,10.99
2018-04-24T04:26:03.532Z,11
2018-04-24T04:26:28.949Z,11.07
2018-04-24T04:26:54.448Z,11.08
2018-04-24T04:27:19.911Z,11.1
2018-04-24T04:27:45.393Z,11.04
2018-04-24T04:28:10.851Z,11.08
2018-04-24T04:28:36.269Z,11.1
2018-04-24T04:29:01.742Z,11.08
2018-04-24T04:29:27.201Z,11.15
2018-04-24T04:29:52.659Z,11.14
2018-04-24T04:30:18.177Z,11.14
2018-04-24T04:30:43.621Z,11.15
2018-04-24T04:31:09.286Z,11.07
2018-04-24T04:31:34.605Z,11.04
2018-04-24T04:32:00.300Z,11.07
2018-04-24T04:32:25.623Z,11.19
2018-04-24T04:32:51.256Z,11.18
2018-04-24T04:33:16.794Z,11.22
2018-04-24T04:33:42.205Z,11.18
2018-04-24T04:34:07.781Z,11.19
2018-04-24T04:34:33.338Z,11.22
2018-04-24T04:34:58.872Z,11.18
2018-04-24T04:35:24.528Z,11.32
2018-04-24T04:35:50.402Z,11.25
2018-04-24T04:36:15.935Z,11.23
2018-04-24T04:36:41.566Z,11.23
2018-04-24T04:37:07.083Z,11.22
2018-04-24T04:37:33.021Z,11.17
2018-04-24T04:37:58.742Z,11.3
2018-04-24T04:38:24.273Z,11.25
2018-04-24T04:38:49.956Z,11.17
2018-04-24T04:39:15.720Z,11.27
2018-04-24T04:39:41.414Z,11.25
2018-04-24T04:40:06.952Z,11.36
2018-04-24T04:40:32.869Z,11.29
2018-04-24T04:40:58.402Z,11.26
2018-04-24T04:41:24.719Z,11.4
2018-04-24T04:41:49.766Z,11.27
2018-04-24T04:42:15.276Z,11.37
2018-04-24T04:42:40.913Z,11.3
2018-04-24T04:43:06.656Z,11.23
2018-04-24T04:43:32.583Z,11.33
2018-04-24T04:43:58.267Z,11.35
2018-04-24T04:44:24.075Z,11.26
2018-04-24T04:44:50.255Z,11.29
2018-04-24T04:45:16.144Z,11.27
2018-04-24T04:45:41.968Z,11.32
2018-04-24T04:46:08.831Z,11.23
2018-04-24T04:46:34.385Z,11.35
2018-04-24T04:47:00.665Z,11.27
2018-04-24T04:47:27.016Z,11.32
2018-04-24T04:47:52.574Z,11.29
2018-04-24T04:48:18.342Z,11.23
2018-04-24T04:48:44.441Z,11.32
2018-04-24T04:49:10.314Z,11.3
2018-04-24T04:49:36.199Z,11.22
2018-04-24T04:50:03.654Z,11.29
2018-04-24T04:50:29.249Z,11.3
2018-04-24T04:50:55.569Z,11.3
2018-04-24T04:51:21.757Z,11.3
2018-04-24T04:51:48.284Z,11.35
2018-04-24T04:52:14.419Z,11.3
2018-04-24T04:52:39.981Z,11.33
2018-04-24T04:53:06.121Z,11.3
2018-04-24T04:53:31.744Z,11.32
2018-04-24T04:53:57.549Z,11.37
2018-04-24T04:54:23.074Z,11.36
2018-04-24T04:54:48.508Z,11.4
2018-04-24T04:55:14.078Z,11.4
2018-04-24T04:55:39.632Z,11.3
2018-04-24T04:56:05.261Z,11.36
2018-04-24T04:56:30.814Z,11.41
2018-04-24T04:56:56.408Z,11.4
2018-04-24T04:57:21.883Z,11.37
2018-04-24T04:57:47.404Z,11.36
2018-04-24T04:58:12.858Z,11.4
2018-04-24T04:58:38.376Z,11.35
2018-04-24T04:59:03.897Z,11.35
2018-04-24T04:59:29.406Z,11.37
2018-04-24T04:59:54.981Z,11.32
2018-04-24T05:00:20.656Z,11.43
2018-04-24T05:00:46.183Z,11.36
2018-04-24T05:01:11.795Z,11.36
2018-04-24T05:01:37.327Z,11.36
2018-04-24T05:02:02.890Z,11.44
2018-04-24T05:02:28.410Z,11.4
2018-04-24T05:02:53.948Z,11.51
2018-04-24T05:03:19.486Z,11.4
2018-04-24T05:03:45.077Z,11.47
2018-04-24T05:04:10.704Z,11.5
2018-04-24T05:04:36.302Z,11.5
2018-04-24T05:05:01.983Z,11.5
2018-04-24T05:05:27.427Z,11.52
2018-04-24T05:05:53.003Z,11.54
2018-04-24T05:06:18.759Z,11.47
2018-04-24T05:06:44.671Z,11.52
2018-04-24T05:07:10.373Z,11.51
2018-04-24T05:07:36.156Z,11.54
2018-04-24T05:08:01.757Z,11.48
2018-04-24T05:08:27.507Z,11.51
2018-04-24T05:08:53.195Z,11.54
2018-04-24T05:09:18.716Z,11.6
2018-04-24T05:09:44.298Z,11.54
2018-04-24T05:10:10.478Z,11.51
2018-04-24T05:10:35.960Z,11.52
2018-04-24T05:11:01.434Z,11.48
2018-04-24T05:11:26.947Z,11.47
2018-04-24T05:11:52.497Z,11.51
2018-04-24T05:12:17.968Z,11.51
2018-04-24T05:12:43.471Z,11.51
2018-04-24T05:13:08.927Z,11.52
2018-04-24T05:13:34.388Z,11.52
2018-04-24T05:13:59.862Z,11.54
2018-04-24T05:14:25.348Z,11.57
2018-04-24T05:14:50.853Z,11.55
2018-04-24T05:15:16.344Z,11.48
2018-04-24T05:15:41.830Z,11.59
2018-04-24T05:16:07.313Z,11.55
2018-04-24T05:16:32.775Z,11.54
2018-04-24T05:16:58.309Z,11.5
2018-04-24T05:17:23.810Z,11.5
2018-04-24T05:17:49.332Z,11.51
2018-04-24T05:18:14.827Z,11.51
2018-04-24T05:18:40.300Z,11.52
2018-04-24T05:19:05.761Z,11.5
2018-04-24T05:19:31.289Z,11.6
2018-04-24T05:19:56.768Z,11.57
2018-04-24T05:20:22.250Z,11.63
2018-04-24T05:20:47.697Z,11.44
2018-04-24T05:21:13.350Z,11.48
2018-04-24T05:21:38.741Z,11.52
2018-04-24T05:22:04.217Z,11.57
2018-04-24T05:22:29.729Z,11.48
2018-04-24T05:22:55.194Z,11.55
2018-04-24T05:23:20.665Z,11.57
2018-04-24T05:23:46.149Z,11.51
2018-04-24T05:24:11.622Z,11.57
2018-04-24T05:24:37.124Z,11.52
2018-04-24T05:25:02.597Z,11.51
2018-04-24T05:25:28.046Z,11.62
2018-04-24T05:25:53.521Z,11.5
2018-04-24T05:26:18.963Z,11.55
2018-04-24T05:26:44.410Z,11.57
2018-04-24T05:27:09.873Z,11.62
2018-04-24T05:27:35.342Z,11.52
2018-04-24T05:28:00.801Z,11.5
2018-04-24T05:28:26.295Z,11.54
2018-04-24T05:28:51.794Z,11.57
2018-04-24T05:29:17.251Z,11.63
2018-04-24T05:29:42.723Z,11.55
2018-04-24T05:30:08.180Z,11.5
2018-04-24T05:30:33.691Z,11.54
2018-04-24T05:31:42.337Z,11.57
2018-04-24T05:32:07.814Z,11.66
2018-04-24T05:32:33.321Z,11.54
2018-04-24T05:32:58.792Z,11.6
2018-04-24T05:33:24.296Z,11.59
2018-04-24T05:33:49.747Z,11.63
2018-04-24T05:34:15.209Z,11.57
2018-04-24T05:34:40.696Z,11.65
2018-04-24T05:35:06.147Z,11.6
2018-04-24T05:35:31.631Z,11.66
2018-04-24T05:35:57.163Z,11.55
2018-04-24T05:36:22.648Z,11.55
2018-04-24T05:36:48.149Z,11.6
2018-04-24T05:37:13.607Z,11.51
2018-04-24T05:37:39.072Z,11.62
2018-04-24T05:38:27.379Z,11.6
2018-04-24T05:38:52.883Z,11.51
2018-04-24T05:39:18.370Z,11.59
2018-04-24T05:39:43.842Z,11.51
2018-04-24T05:40:09.300Z,11.6
2018-04-24T05:40:34.785Z,11.65
2018-04-24T05:41:00.321Z,11.73
2018-04-24T05:41:25.793Z,11.68
2018-04-24T05:41:51.261Z,11.59
2018-04-24T05:42:16.715Z,11.59
2018-04-24T05:42:42.176Z,11.66
2018-04-24T05:43:07.657Z,11.66
2018-04-24T05:43:33.150Z,11.63
2018-04-24T05:43:58.639Z,11.65
2018-04-24T05:44:24.102Z,11.62
2018-04-24T05:44:49.593Z,11.68
2018-04-24T05:45:15.061Z,11.66
2018-04-24T05:45:40.514Z,11.55
2018-04-24T05:46:05.962Z,11.65
2018-04-24T05:46:31.446Z,11.73
2018-04-24T05:46:56.905Z,11.62
2018-04-24T05:47:22.390Z,11.63
2018-04-24T05:48:20.886Z,11.68
2018-04-24T05:48:46.384Z,11.7
2018-04-24T05:49:11.871Z,11.7
2018-04-24T05:49:37.342Z,11.7
2018-04-24T05:50:02.843Z,11.7
2018-04-24T05:50:28.301Z,11.73
2018-04-24T05:50:53.784Z,11.73
2018-04-24T05:51:19.240Z,11.69
2018-04-24T05:51:44.728Z,11.73
2018-04-24T05:52:10.171Z,11.75
2018-04-24T05:52:35.620Z,11.72
2018-04-24T05:53:01.118Z,11.68
2018-04-24T05:53:26.528Z,11.73
2018-04-24T05:53:51.989Z,11.7
2018-04-24T05:54:17.461Z,11.73
2018-04-24T05:54:42.930Z,11.75
2018-04-24T05:55:08.375Z,11.69
2018-04-24T05:55:33.868Z,11.8
2018-04-24T05:55:59.316Z,11.75
2018-04-24T05:56:24.778Z,11.69
2018-04-24T05:56:50.230Z,11.78
2018-04-24T05:57:15.685Z,11.75
2018-04-24T05:57:41.168Z,11.78
2018-04-24T05:58:06.641Z,11.77
2018-04-24T05:58:32.125Z,11.83
2018-04-24T05:58:57.603Z,11.81
2018-04-24T05:59:23.090Z,11.81
2018-04-24T05:59:48.582Z,11.81
2018-04-24T06:00:14.061Z,11.78
2018-04-24T06:00:39.512Z,11.81
2018-04-24T06:01:04.962Z,11.87
2018-04-24T06:01:30.423Z,11.84
2018-04-24T06:01:55.902Z,11.86
2018-04-24T06:02:21.371Z,11.91
2018-04-24T06:02:46.820Z,11.94
2018-04-24T06:03:12.325Z,11.88
2018-04-24T06:03:37.760Z,11.88
2018-04-24T06:04:03.222Z,11.91
2018-04-24T06:04:28.718Z,12
2018-04-24T06:04:54.174Z,11.88
2018-04-24T06:05:19.673Z,11.97
2018-04-24T06:05:45.136Z,11.88
2018-04-24T06:06:10.578Z,11.91
2018-04-24T06:06:36.116Z,11.88
2018-04-24T06:07:01.542Z,11.95
2018-04-24T06:07:27.043Z,11.95
2018-04-24T06:07:52.518Z,11.97
2018-04-24T06:08:18.067Z,12
2018-04-24T06:08:43.623Z,11.97
2018-04-24T06:09:08.962Z,11.99
2018-04-24T06:09:34.424Z,11.99
2018-04-24T06:09:59.943Z,11.94
2018-04-24T06:10:25.379Z,11.97
2018-04-24T06:10:50.853Z,12.06
2018-04-24T06:11:16.308Z,11.95
2018-04-24T06:11:41.801Z,12.03
2018-04-24T06:12:07.255Z,11.97
2018-04-24T06:12:32.748Z,11.91
2018-04-24T06:12:58.235Z,11.97
2018-04-24T06:13:23.677Z,11.97
2018-04-24T06:13:49.179Z,11.99
2018-04-24T06:14:14.635Z,11.95
2018-04-24T06:14:40.090Z,11.97
2018-04-24T06:15:05.586Z,11.97
2018-04-24T06:15:31.060Z,12.06
2018-04-24T06:15:56.531Z,11.94
2018-04-24T06:16:22.009Z,11.91
2018-04-24T06:16:47.543Z,11.91
2018-04-24T06:17:13.001Z,11.97
2018-04-24T06:17:38.478Z,11.94
2018-04-24T06:18:03.946Z,11.95
2018-04-24T06:18:29.395Z,11.91
2018-04-24T06:18:54.883Z,11.95
2018-04-24T06:19:48.815Z,11.88
2018-04-24T06:20:14.300Z,11.94
2018-04-24T06:20:39.803Z,11.95
2018-04-24T06:21:05.295Z,11.91
2018-04-24T06:21:30.768Z,11.88
2018-04-24T06:21:56.218Z,11.94
2018-04-24T06:22:21.686Z,11.97
2018-04-24T06:22:47.171Z,11.91
2018-04-24T06:23:12.650Z,11.88
2018-04-24T06:23:38.131Z,11.95
2018-04-24T06:24:03.608Z,11.91
2018-04-24T06:24:29.089Z,11.9
2018-04-24T06:24:54.549Z,11.8
2018-04-24T06:25:20.082Z,11.83
2018-04-24T06:25:45.533Z,11.83
2018-04-24T06:26:11.067Z,11.91
2018-04-24T06:26:36.527Z,11.83
2018-04-24T06:27:01.983Z,11.78
2018-04-24T06:27:27.456Z,11.73
2018-04-24T06:27:52.931Z,11.87
2018-04-24T06:28:18.430Z,11.78
2018-04-24T06:28:43.891Z,11.94
2018-04-24T06:29:09.331Z,11.87
2018-04-24T06:29:34.803Z,11.91
2018-04-24T06:30:00.317Z,11.95
2018-04-24T06:30:25.795Z,11.9
2018-04-24T06:30:51.283Z,11.87
2018-04-24T06:31:16.890Z,11.95
2018-04-24T06:31:42.334Z,11.91
2018-04-24T06:32:07.792Z,11.99
2018-04-24T06:32:33.263Z,11.95
2018-04-24T06:32:58.764Z,11.9
2018-04-24T06:33:24.480Z,12
2018-04-24T06:33:49.955Z,11.95
2018-04-24T06:34:15.456Z,12.02
2018-04-24T06:34:40.880Z,12.02
2018-04-24T06:35:06.342Z,12
2018-04-24T06:35:31.818Z,11.95
2018-04-24T06:35:57.398Z,12.04
2018-04-24T06:36:22.791Z,11.97
2018-04-24T06:36:48.497Z,12.03
2018-04-24T06:37:13.963Z,11.99
2018-04-24T06:37:39.359Z,12
2018-04-24T06:38:04.741Z,12.06
2018-04-24T06:38:30.251Z,12.1
2018-04-24T06:38:55.909Z,12.07
2018-04-24T06:39:21.513Z,12.17
2018-04-24T06:39:47.074Z,12.12
2018-04-24T06:40:12.720Z,12.12
2018-04-24T06:40:38.250Z,12.17
2018-04-24T06:41:03.771Z,12.1
2018-04-24T06:41:29.203Z,12.09
2018-04-24T06:41:54.700Z,12.07
2018-04-24T06:42:20.259Z,12.04
2018-04-24T06:42:45.761Z,12.1
2018-04-24T06:43:11.199Z,12.1
2018-04-24T06:43:36.683Z,12.1
2018-04-24T06:44:02.176Z,12.12
2018-04-24T06:44:27.650Z,12.17
2018-04-24T06:44:53.120Z,12.13
2018-04-24T06:45:18.571Z,12.24
2018-04-24T06:45:44.201Z,12.15
2018-04-24T06:46:09.617Z,12.13
2018-04-24T06:46:35.103Z,12.12
2018-04-24T06:47:00.587Z,12.2
2018-04-24T06:47:26.040Z,12.22
2018-04-24T06:47:51.608Z,12.17
2018-04-24T06:48:16.992Z,12.21
2018-04-24T06:48:42.469Z,12.2
2018-04-24T06:49:07.927Z,12.13
2018-04-24T06:49:33.392Z,12.13
2018-04-24T06:49:58.854Z,12.2
2018-04-24T06:50:24.330Z,12.12
2018-04-24T06:50:49.838Z,12.15
2018-04-24T06:51:15.293Z,12.21
2018-04-24T06:51:40.764Z,12.15
2018-04-24T06:52:06.218Z,12.13
2018-04-24T06:52:31.696Z,12.21
2018-04-24T06:52:57.167Z,12.2
2018-04-24T06:53:22.658Z,12.12
2018-04-24T06:53:48.122Z,12.15
2018-04-24T06:54:13.582Z,12.21
2018-04-24T06:54:39.084Z,12.24
2018-04-24T06:55:04.598Z,12.21
2018-04-24T06:55:30.049Z,12.21
2018-04-24T06:55:55.490Z,12.22
2018-04-24T06:56:20.954Z,12.2
2018-04-24T06:56:46.410Z,12.2
2018-04-24T06:57:11.833Z,12.2
2018-04-24T06:57:37.301Z,12.21
2018-04-24T06:58:02.763Z,12.22
2018-04-24T06:58:28.276Z,12.17
2018-04-24T06:58:53.747Z,12.22
2018-04-24T06:59:19.194Z,12.24
2018-04-24T06:59:44.695Z,12.2
2018-04-24T07:00:10.160Z,12.2
2018-04-24T07:00:35.716Z,12.25
2018-04-24T07:01:01.122Z,12.27
2018-04-24T07:01:26.598Z,12.25
2018-04-24T07:01:52.073Z,12.29
2018-04-24T07:02:17.541Z,12.28
2018-04-24T07:02:43.066Z,12.29
2018-04-24T07:03:08.557Z,12.27
2018-04-24T07:03:34.041Z,12.27
2018-04-24T07:03:59.574Z,12.31
2018-04-24T07:04:25.043Z,12.35
2018-04-24T07:04:50.548Z,12.37
2018-04-24T07:05:16.001Z,12.36
2018-04-24T07:05:41.460Z,12.36
2018-04-24T07:06:06.929Z,12.43
2018-04-24T07:06:55.234Z,12.45
2018-04-24T07:07:20.708Z,12.35
2018-04-24T07:07:46.197Z,12.31
2018-04-24T07:08:11.750Z,12.36
2018-04-24T07:08:37.340Z,12.4
2018-04-24T07:09:02.790Z,12.32
2018-04-24T07:09:28.261Z,12.35
2018-04-24T07:09:53.725Z,12.39
2018-04-24T07:10:19.216Z,12.32
2018-04-24T07:10:44.691Z,12.32
2018-04-24T07:11:10.119Z,12.29
2018-04-24T07:11:35.598Z,12.4
2018-04-24T07:12:01.069Z,12.4
2018-04-24T07:12:26.548Z,12.46
2018-04-24T07:12:51.991Z,12.39
2018-04-24T07:13:17.459Z,12.46
2018-04-24T07:13:42.958Z,12.42
2018-04-24T07:14:08.492Z,12.46
2018-04-24T07:14:33.942Z,12.42
2018-04-24T07:14:59.492Z,12.43
2018-04-24T07:15:24.994Z,12.45
2018-04-24T07:15:50.539Z,12.45
2018-04-24T07:16:16.067Z,12.5
2018-04-24T07:16:41.553Z,12.43
2018-04-24T07:17:07.043Z,12.42
2018-04-24T07:17:32.516Z,12.47
2018-04-24T07:17:57.995Z,12.45
2018-04-24T07:18:23.467Z,12.43
2018-04-24T07:18:49.028Z,12.39
2018-04-24T07:19:14.569Z,12.46
2018-04-24T07:19:40.071Z,12.45
2018-04-24T07:20:05.669Z,12.42
2018-04-24T07:20:31.778Z,12.43
2018-04-24T07:20:57.151Z,12.36
2018-04-24T07:21:22.643Z,12.46
2018-04-24T07:21:48.197Z,12.45
2018-04-24T07:22:13.847Z,12.43
2018-04-24T07:22:39.273Z,12.47
2018-04-24T07:23:04.909Z,12.5
2018-04-24T07:23:30.406Z,12.49
2018-04-24T07:23:55.861Z,12.47
2018-04-24T07:24:21.355Z,12.46
2018-04-24T07:24:46.853Z,12.5
2018-04-24T07:25:12.328Z,12.55
2018-04-24T07:25:37.803Z,12.54
2018-04-24T07:26:03.311Z,12.61
2018-04-24T07:26:28.788Z,12.55
2018-04-24T07:26:54.292Z,12.53
2018-04-24T07:27:19.729Z,12.62
2018-04-24T07:27:45.208Z,12.67
2018-04-24T07:28:10.701Z,12.68
2018-04-24T07:28:36.171Z,12.55
2018-04-24T07:29:01.699Z,12.68
2018-04-24T07:29:27.332Z,12.73
2018-04-24T07:29:52.928Z,12.72
2018-04-24T07:30:18.535Z,12.73
2018-04-24T07:30:44.121Z,12.73
2018-04-24T07:31:09.676Z,12.67
2018-04-24T07:31:35.234Z,12.7
2018-04-24T07:32:00.819Z,12.75
2018-04-24T07:32:26.434Z,12.68
2018-04-24T07:32:52.062Z,12.72
2018-04-24T07:33:17.524Z,12.67
2018-04-24T07:33:43.276Z,12.68
2018-04-24T07:34:08.763Z,12.78
2018-04-24T07:34:34.366Z,12.72
2018-04-24T07:34:59.845Z,12.7
2018-04-24T07:35:25.457Z,12.79
2018-04-24T07:35:51.139Z,12.68
2018-04-24T07:36:16.785Z,12.76
2018-04-24T07:36:42.425Z,12.78
2018-04-24T07:37:08.042Z,12.8
2018-04-24T07:37:33.561Z,12.83
2018-04-24T07:37:59.162Z,12.82
2018-04-24T07:38:24.962Z,12.78
2018-04-24T07:38:50.623Z,12.76
2018-04-24T07:39:16.163Z,12.72
2018-04-24T07:39:41.824Z,12.83
2018-04-24T07:40:07.427Z,12.79
2018-04-24T07:40:33.026Z,12.75
2018-04-24T07:40:58.606Z,12.79
2018-04-24T07:41:24.089Z,12.86
2018-04-24T07:41:49.712Z,12.8
2018-04-24T07:42:15.306Z,12.93
2018-04-24T07:42:40.907Z,12.93
2018-04-24T07:43:06.435Z,12.93
2018-04-24T07:43:32.053Z,12.93
2018-04-24T07:43:57.600Z,12.9
2018-04-24T07:44:23.146Z,12.93
2018-04-24T07:44:48.732Z,12.9
2018-04-24T07:45:14.281Z,12.87
2018-04-24T07:45:39.868Z,12.93
2018-04-24T07:46:05.388Z,12.91
2018-04-24T07:46:31.061Z,12.9
2018-04-24T07:46:56.510Z,12.98
2018-04-24T07:47:22.242Z,12.95
2018-04-24T07:47:47.861Z,12.97
2018-04-24T07:48:13.481Z,13
2018-04-24T07:48:39.019Z,12.95
2018-04-24T07:49:04.611Z,12.95
2018-04-24T07:49:30.129Z,12.97
2018-04-24T07:49:55.944Z,13
2018-04-24T07:50:21.563Z,12.94
2018-04-24T07:50:47.115Z,12.98
2018-04-24T07:51:12.680Z,12.97
2018-04-24T07:51:38.273Z,12.97
2018-04-24T07:52:03.892Z,13.04
2018-04-24T07:52:29.395Z,13.03
2018-04-24T07:52:55.021Z,13.04
2018-04-24T07:53:20.487Z,13.03
2018-04-24T07:53:46.097Z,13.04
2018-04-24T07:54:11.676Z,13.09
2018-04-24T07:54:37.229Z,13.09
2018-04-24T07:55:02.795Z,13.08
2018-04-24T07:55:28.349Z,13.09
2018-04-24T07:55:53.956Z,13.13
2018-04-24T07:56:19.531Z,13.12
2018-04-24T07:56:45.068Z,13.11
2018-04-24T07:57:10.620Z,13.12
2018-04-24T07:57:36.168Z,13.23
2018-04-24T07:58:01.938Z,13.2
2018-04-24T07:58:27.543Z,13.15
2018-04-24T07:58:53.072Z,13.19
2018-04-24T07:59:18.648Z,13.15
2018-04-24T07:59:44.101Z,13.19
2018-04-24T08:00:09.705Z,13.12
2018-04-24T08:00:35.304Z,13.13
2018-04-24T08:01:00.881Z,13.19
2018-04-24T08:01:26.360Z,13.16
2018-04-24T08:01:51.950Z,13.11
2018-04-24T08:02:17.536Z,13.09
2018-04-24T08:02:43.128Z,13.11
2018-04-24T08:03:08.594Z,13.09
2018-04-24T08:03:34.208Z,13.08
2018-04-24T08:03:59.695Z,13.04
2018-04-24T08:04:25.297Z,13.03
2018-04-24T08:04:50.864Z,13.05
2018-04-24T08:05:16.433Z,13.12
2018-04-24T08:05:41.974Z,13.08
2018-04-24T08:06:07.515Z,13.12
2018-04-24T08:06:33.322Z,13.04
2018-04-24T08:06:58.894Z,13.09
2018-04-24T08:07:24.411Z,13.09
2018-04-24T08:07:50.010Z,13.11
2018-04-24T08:08:15.626Z,13.09
2018-04-24T08:08:41.329Z,13.05
2018-04-24T08:09:06.859Z,13.15
2018-04-24T08:09:32.425Z,13.16
2018-04-24T08:09:58.047Z,13.12
2018-04-24T08:10:23.617Z,13.16
2018-04-24T08:10:49.215Z,13.08
2018-04-24T08:11:14.850Z,13.11
2018-04-24T08:11:40.363Z,13.09
2018-04-24T08:12:05.970Z,13.13
2018-04-24T08:12:31.542Z,13.12
2018-04-24T08:12:57.254Z,13.15
2018-04-24T08:13:22.824Z,13.11
2018-04-24T08:13:48.411Z,13.13
2018-04-24T08:14:13.927Z,13.11
2018-04-24T08:14:39.653Z,13.13
2018-04-24T08:15:05.146Z,13.13
2018-04-24T08:15:30.744Z,13.12
2018-04-24T08:15:56.298Z,13.11
2018-04-24T08:16:21.909Z,13.12
2018-04-24T08:16:47.551Z,13.12
2018-04-24T08:17:13.124Z,13.13
2018-04-24T08:17:38.644Z,13.19
2018-04-24T08:18:04.305Z,13.11
2018-04-24T08:18:29.917Z,13.12
2018-04-24T08:18:55.500Z,13.13
2018-04-24T08:19:21.149Z,13.13
2018-04-24T08:19:46.742Z,13.22
2018-04-24T08:20:12.393Z,13.23
2018-04-24T08:20:37.919Z,13.12
2018-04-24T08:21:03.452Z,13.19
2018-04-24T08:21:29.143Z,13.13
2018-04-24T08:21:54.738Z,13.19
2018-04-24T08:22:20.342Z,13.2
2018-04-24T08:22:45.958Z,13.16
2018-04-24T08:23:11.561Z,13.2
2018-04-24T08:23:37.024Z,13.18
2018-04-24T08:24:02.622Z,13.16
2018-04-24T08:24:28.228Z,13.23
2018-04-24T08:24:53.800Z,13.28
2018-04-24T08:25:19.470Z,13.23
2018-04-24T08:25:44.959Z,13.22
2018-04-24T08:26:10.503Z,13.22
2018-04-24T08:26:36.031Z,13.27
2018-04-24T08:27:01.693Z,13.23
2018-04-24T08:27:27.156Z,13.15
2018-04-24T08:27:52.732Z,13.16
2018-04-24T08:28:18.382Z,13.15
2018-04-24T08:28:44.083Z,13.18
2018-04-24T08:29:09.685Z,13.15
2018-04-24T08:29:35.194Z,13.15
2018-04-24T08:30:00.704Z,13.15
2018-04-24T08:30:26.355Z,13.15
2018-04-24T08:30:51.793Z,13.16
2018-04-24T08:31:17.440Z,13.13
2018-04-24T08:31:43.029Z,13.16
2018-04-24T08:32:08.504Z,13.12
2018-04-24T08:32:34.053Z,13.16
2018-04-24T08:32:59.638Z,13.15
2018-04-24T08:33:25.245Z,13.11
2018-04-24T08:33:50.936Z,13.15
2018-04-24T08:34:16.514Z,13.12
2018-04-24T08:34:42.116Z,13.12
2018-04-24T08:35:07.744Z,13.16
2018-04-24T08:35:33.625Z,13.16
2018-04-24T08:35:59.438Z,13.18
2018-04-24T08:36:25.000Z,13.15
2018-04-24T08:36:50.531Z,13.15
2018-04-24T08:37:16.082Z,13.13
2018-04-24T08:37:41.804Z,13.15
2018-04-24T08:38:07.541Z,13.16
2018-04-24T08:38:33.158Z,13.16
2018-04-24T08:38:58.804Z,13.19
2018-04-24T08:39:24.331Z,13.13
2018-04-24T08:39:49.911Z,13.23
2018-04-24T08:40:15.615Z,13.31
2018-04-24T08:41:14.163Z,13.3
2018-04-24T08:41:39.659Z,13.35
2018-04-24T08:42:05.160Z,13.3
2018-04-24T08:42:30.606Z,13.27
2018-04-24T08:42:56.076Z,13.27
2018-04-24T08:43:21.567Z,13.23
2018-04-24T08:43:47.051Z,13.39
2018-04-24T08:44:12.496Z,13.25
2018-04-24T08:44:37.939Z,13.39
2018-04-24T08:45:03.363Z,13.38
2018-04-24T08:45:28.882Z,13.37
2018-04-24T08:45:54.333Z,13.42
2018-04-24T08:46:19.909Z,13.33
2018-04-24T08:46:45.485Z,13.41
2018-04-24T08:47:11.126Z,13.38
2018-04-24T08:47:36.698Z,13.37
2018-04-24T08:48:02.265Z,13.3
2018-04-24T08:48:27.908Z,13.31
2018-04-24T08:48:53.473Z,13.41
2018-04-24T08:49:19.137Z,13.49
2018-04-24T08:49:44.688Z,13.44
2018-04-24T08:50:10.244Z,13.37
2018-04-24T08:50:35.982Z,13.47
2018-04-24T08:51:01.573Z,13.39
2018-04-24T08:51:27.170Z,13.33
2018-04-24T08:51:52.705Z,13.38
2018-04-24T08:52:18.229Z,13.39
2018-04-24T08:52:43.812Z,13.44
2018-04-24T08:53:09.391Z,13.41
2018-04-24T08:53:34.936Z,13.47
2018-04-24T08:54:00.522Z,13.46
2018-04-24T08:54:26.086Z,13.52
2018-04-24T08:54:51.742Z,13.42
2018-04-24T08:55:17.330Z,13.46
2018-04-24T08:55:43.008Z,13.46
2018-04-24T08:56:08.608Z,13.46
2018-04-24T08:56:34.205Z,13.41
2018-04-24T08:56:59.766Z,13.41
2018-04-24T08:57:25.571Z,13.39
2018-04-24T08:57:51.340Z,13.42
2018-04-24T08:58:17.009Z,13.41
2018-04-24T08:58:42.582Z,13.41
2018-04-24T08:59:08.196Z,13.37
2018-04-24T08:59:33.777Z,13.42
2018-04-24T08:59:59.378Z,13.42
2018-04-24T09:00:25.029Z,13.39
2018-04-24T09:00:50.614Z,13.46
2018-04-24T09:01:16.274Z,13.44
2018-04-24T09:01:41.870Z,13.46
2018-04-24T09:02:07.536Z,13.5
2018-04-24T09:02:32.997Z,13.5
2018-04-24T09:02:58.591Z,13.44
2018-04-24T09:03:24.272Z,13.56
2018-04-24T09:03:49.791Z,13.59
2018-04-24T09:04:15.696Z,13.6
2018-04-24T09:04:41.212Z,13.56
2018-04-24T09:05:06.710Z,13.59
2018-04-24T09:05:32.298Z,13.57
2018-04-24T09:05:57.936Z,13.68
2018-04-24T09:06:23.544Z,13.6
2018-04-24T09:06:49.023Z,13.7
2018-04-24T09:07:14.583Z,13.63
2018-04-24T09:07:40.364Z,13.77
2018-04-24T09:08:06.011Z,13.74
2018-04-24T09:08:31.611Z,13.74
2018-04-24T09:08:57.152Z,13.78
2018-04-24T09:09:22.847Z,13.79
2018-04-24T09:09:48.295Z,13.85
2018-04-24T09:10:13.851Z,13.86
2018-04-24T09:10:39.438Z,13.83
2018-04-24T09:11:05.012Z,13.92
2018-04-24T09:11:30.549Z,13.93
2018-04-24T09:11:56.101Z,13.95
2018-04-24T09:12:21.819Z,13.96
2018-04-24T09:12:47.501Z,13.97
2018-04-24T09:13:13.256Z,14.04
2018-04-24T09:13:38.815Z,14
2018-04-24T09:14:04.456Z,14.03
2018-04-24T09:14:29.930Z,14.2
2018-04-24T09:14:55.490Z,14.22
2018-04-24T09:15:21.107Z,14.26
2018-04-24T09:15:46.736Z,14.3
2018-04-24T09:16:12.346Z,14.26
2018-04-24T09:16:37.837Z,14.3
2018-04-24T09:17:03.444Z,14.26
2018-04-24T09:17:29.016Z,14.36
2018-04-24T09:17:54.575Z,14.35
2018-04-24T09:18:20.233Z,14.43
2018-04-24T09:18:45.614Z,14.35
2018-04-24T09:19:11.334Z,14.35
2018-04-24T09:19:36.903Z,14.36
2018-04-24T09:20:02.533Z,14.47
2018-04-24T09:20:28.058Z,14.32
2018-04-24T09:20:53.720Z,14.4
2018-04-24T09:21:19.275Z,14.36
2018-04-24T09:21:44.883Z,14.36
2018-04-24T09:22:10.431Z,14.33
2018-04-24T09:22:35.970Z,14.41
2018-04-24T09:23:01.526Z,14.28
2018-04-24T09:23:27.115Z,14.32
2018-04-24T09:23:52.678Z,14.33
2018-04-24T09:24:18.403Z,14.29
2018-04-24T09:24:43.996Z,14.32
2018-04-24T09:25:09.752Z,14.28
2018-04-24T09:25:35.215Z,14.23
2018-04-24T09:26:00.836Z,14.17
2018-04-24T09:26:26.507Z,14.17
2018-04-24T09:26:52.085Z,14.22
2018-04-24T09:27:17.803Z,14.12
2018-04-24T09:27:43.339Z,14.14
2018-04-24T09:28:08.987Z,14.14
2018-04-24T09:28:34.624Z,14.18
2018-04-24T09:29:00.433Z,14.17
2018-04-24T09:29:26.068Z,14.17
2018-04-24T09:29:51.600Z,14.2
2018-04-24T09:30:17.227Z,14.33
2018-04-24T09:30:42.750Z,14.29
2018-04-24T09:31:08.419Z,14.29
2018-04-24T09:31:33.974Z,14.28
2018-04-24T09:31:59.549Z,14.35
2018-04-24T09:32:25.106Z,14.44
2018-04-24T09:32:50.801Z,14.36
2018-04-24T09:33:16.415Z,14.37
2018-04-24T09:33:42.140Z,14.47
2018-04-24T09:34:07.612Z,14.47
2018-04-24T09:34:33.158Z,14.4
2018-04-24T09:34:58.772Z,14.45
2018-04-24T09:35:24.462Z,14.45
2018-04-24T09:35:50.176Z,14.55
2018-04-24T09:36:16.020Z,14.59
2018-04-24T09:36:41.366Z,14.54
2018-04-24T09:37:06.993Z,14.68
2018-04-24T09:37:32.457Z,14.73
2018-04-24T09:37:58.116Z,14.81
2018-04-24T09:38:23.691Z,14.84
2018-04-24T09:38:49.250Z,14.88
2018-04-24T09:39:14.758Z,14.88
2018-04-24T09:39:40.373Z,14.92
2018-04-24T09:40:06.009Z,14.97
2018-04-24T09:40:31.675Z,15.07
2018-04-24T09:40:57.209Z,15.15
2018-04-24T09:41:22.907Z,15.14
2018-04-24T09:41:48.550Z,15.14
2018-04-24T09:42:14.043Z,15.1
2018-04-24T09:42:39.677Z,15.21